createdAt,value
2018-05-26T00:00:03.920Z,16.16
2018-05-26T00:01:56.709Z,16.14
2018-05-26T00:02:56.655Z,16.06
2018-05-26T00:04:49.445Z,16.07
2018-05-26T00:05:49.388Z,16.01
2018-05-26T00:07:42.126Z,16.01
2018-05-26T00:08:42.061Z,16.03
2018-05-26T00:10:34.848Z,15.88
2018-05-26T00:11:34.776Z,15.92
2018-05-26T00:13:27.545Z,15.89
2018-05-26T00:14:27.479Z,15.89
2018-05-26T00:16:20.295Z,15.89
2018-05-26T00:17:20.220Z,15.86
2018-05-26T00:19:13.022Z,15.88
2018-05-26T00:20:12.949Z,15.81
2018-05-26T00:22:05.716Z,15.66
2018-05-26T00:23:05.674Z,15.56
2018-05-26T00:24:58.438Z,15.58
2018-05-26T00:25:58.367Z,15.55
2018-05-26T00:27:51.139Z,15.60
2018-05-26T00:28:51.076Z,15.56
2018-05-26T00:30:43.846Z,15.44
2018-05-26T00:31:43.766Z,15.46
2018-05-26T00:33:36.554Z,15.44
2018-05-26T00:34:36.493Z,15.46
2018-05-26T00:36:29.292Z,15.40
2018-05-26T00:37:29.217Z,15.41
2018-05-26T00:39:21.991Z,15.40
2018-05-26T00:40:21.920Z,15.40
2018-05-26T00:42:14.714Z,15.38
2018-05-26T00:43:14.653Z,15.34
2018-05-26T00:45:07.446Z,15.38
2018-05-26T00:46:07.374Z,15.31
2018-05-26T00:48:00.169Z,15.28
2018-05-26T00:49:00.111Z,15.31
2018-05-26T00:50:52.885Z,15.40
2018-05-26T00:51:52.814Z,15.30
2018-05-26T00:53:45.607Z,15.20
2018-05-26T00:54:45.546Z,15.22
2018-05-26T00:56:38.318Z,15.20
2018-05-26T00:57:38.254Z,15.27
2018-05-26T00:59:31.054Z,15.20
2018-05-26T01:00:30.977Z,15.22
2018-05-26T01:02:23.741Z,15.28
2018-05-26T01:03:23.690Z,15.13
2018-05-26T01:05:16.488Z,15.13
2018-05-26T01:06:16.412Z,15.12
2018-05-26T01:08:09.186Z,14.98
2018-05-26T01:09:09.116Z,14.98
2018-05-26T01:11:01.909Z,15.07
2018-05-26T01:12:01.839Z,15.09
2018-05-26T01:13:54.632Z,14.95
2018-05-26T01:14:54.543Z,14.95
2018-05-26T01:16:47.315Z,14.86
2018-05-26T01:17:47.239Z,14.87
2018-05-26T01:19:40.018Z,14.74
2018-05-26T01:20:39.958Z,14.71
2018-05-26T01:22:32.762Z,14.74
2018-05-26T01:23:32.677Z,14.75
2018-05-26T01:25:25.483Z,14.82
2018-05-26T01:26:25.402Z,14.80
2018-05-26T01:28:18.161Z,14.94
2018-05-26T01:29:18.107Z,14.95
2018-05-26T01:31:10.885Z,14.98
2018-05-26T01:32:10.806Z,14.95
2018-05-26T01:34:03.582Z,14.82
2018-05-26T01:35:03.511Z,14.83
2018-05-26T01:36:56.327Z,14.97
2018-05-26T01:37:56.229Z,15.09
2018-05-26T01:39:48.993Z,15.13
2018-05-26T01:40:48.933Z,15.23
2018-05-26T01:42:41.711Z,15.19
2018-05-26T01:43:41.632Z,15.16
2018-05-26T01:45:34.435Z,15.01
2018-05-26T01:46:34.358Z,15.05
2018-05-26T01:48:27.124Z,15.00
2018-05-26T01:49:27.057Z,14.95
2018-05-26T01:51:19.832Z,14.87
2018-05-26T01:52:19.758Z,14.78
2018-05-26T01:54:12.533Z,14.86
2018-05-26T01:55:12.456Z,14.80
2018-05-26T01:57:05.226Z,14.80
2018-05-26T01:58:05.162Z,14.75
2018-05-26T01:59:57.927Z,14.72
2018-05-26T02:00:57.862Z,14.63
2018-05-26T02:02:50.634Z,14.63
2018-05-26T02:03:50.554Z,14.53
2018-05-26T02:05:43.390Z,14.45
2018-05-26T02:06:43.293Z,14.38
2018-05-26T02:08:36.062Z,14.42
2018-05-26T02:09:35.999Z,14.44
2018-05-26T02:11:28.780Z,14.46
2018-05-26T02:12:28.699Z,14.44
2018-05-26T02:14:21.463Z,14.30
2018-05-26T02:15:21.397Z,14.30
2018-05-26T02:17:14.183Z,14.23
2018-05-26T02:18:14.106Z,14.20
2018-05-26T02:20:06.880Z,14.30
2018-05-26T02:21:06.836Z,14.30
2018-05-26T02:22:59.612Z,14.19
2018-05-26T02:23:59.529Z,14.19
2018-05-26T02:25:52.288Z,14.23
2018-05-26T02:26:52.224Z,14.12
2018-05-26T02:28:45.009Z,14.12
2018-05-26T02:29:44.936Z,14.08
2018-05-26T02:31:37.735Z,14.20
2018-05-26T02:32:37.645Z,14.16
2018-05-26T02:34:30.428Z,14.13
2018-05-26T02:35:30.351Z,14.09
2018-05-26T02:37:23.129Z,14.06
2018-05-26T02:38:23.063Z,13.99
2018-05-26T02:40:15.828Z,14.11
2018-05-26T02:41:15.753Z,14.02
2018-05-26T02:43:08.535Z,14.04
2018-05-26T02:44:08.465Z,14.11
2018-05-26T02:46:01.218Z,14.08
2018-05-26T02:47:01.159Z,14.16
2018-05-26T02:48:53.938Z,14.04
2018-05-26T02:49:53.866Z,14.06
2018-05-26T02:51:46.643Z,14.06
2018-05-26T02:52:46.555Z,14.11
2018-05-26T02:54:39.343Z,14.09
2018-05-26T02:55:39.293Z,14.02
2018-05-26T02:57:32.053Z,13.99
2018-05-26T02:58:31.983Z,13.99
2018-05-26T03:00:24.757Z,13.93
2018-05-26T03:01:24.691Z,13.93
2018-05-26T03:03:17.490Z,13.83
2018-05-26T03:04:17.427Z,13.83
2018-05-26T03:06:10.177Z,13.88
2018-05-26T03:07:10.135Z,13.86
2018-05-26T03:09:02.890Z,13.84
2018-05-26T03:10:02.819Z,13.84
2018-05-26T03:11:55.617Z,13.83
2018-05-26T03:12:55.521Z,13.76
2018-05-26T03:14:48.285Z,13.84
2018-05-26T03:15:48.227Z,13.87
2018-05-26T03:17:41.027Z,13.68
2018-05-26T03:18:40.956Z,13.84
2018-05-26T03:20:33.743Z,13.80
2018-05-26T03:21:33.660Z,13.86
2018-05-26T03:23:26.466Z,13.83
2018-05-26T03:24:26.388Z,13.83
2018-05-26T03:26:19.170Z,13.84
2018-05-26T03:27:19.110Z,13.84
2018-05-26T03:29:11.880Z,13.90
2018-05-26T03:30:11.809Z,13.88
2018-05-26T03:32:04.566Z,13.88
2018-05-26T03:33:04.501Z,13.90
2018-05-26T03:34:57.272Z,13.98
2018-05-26T03:35:57.202Z,13.96
2018-05-26T03:37:49.974Z,14.05
2018-05-26T03:38:49.897Z,14.02
2018-05-26T03:40:42.662Z,14.13
2018-05-26T03:41:42.600Z,14.16
2018-05-26T03:43:35.367Z,14.24
2018-05-26T03:44:35.292Z,14.19
2018-05-26T03:46:28.056Z,14.30
2018-05-26T03:47:27.992Z,14.35
2018-05-26T03:49:20.760Z,14.30
2018-05-26T03:50:20.691Z,14.19
2018-05-26T03:52:13.451Z,14.19
2018-05-26T03:53:13.387Z,14.30
2018-05-26T03:55:06.169Z,14.31
2018-05-26T03:56:06.088Z,14.35
2018-05-26T03:57:58.883Z,14.41
2018-05-26T03:58:58.786Z,14.41
2018-05-26T04:00:51.552Z,14.36
2018-05-26T04:01:51.484Z,14.53
2018-05-26T04:03:44.261Z,14.46
2018-05-26T04:04:44.173Z,14.52
2018-05-26T04:06:36.947Z,14.59
2018-05-26T04:07:36.873Z,14.56
2018-05-26T04:09:29.683Z,14.59
2018-05-26T04:10:29.583Z,14.69
2018-05-26T04:12:22.355Z,14.67
2018-05-26T04:13:22.289Z,14.72
2018-05-26T04:15:15.094Z,14.64
2018-05-26T04:16:15.013Z,14.61
2018-05-26T04:18:07.816Z,14.67
2018-05-26T04:19:07.724Z,14.75
2018-05-26T04:21:00.516Z,14.72
2018-05-26T04:22:00.424Z,14.78
2018-05-26T04:23:53.284Z,14.83
2018-05-26T04:24:53.129Z,14.83
2018-05-26T04:26:45.909Z,14.95
2018-05-26T04:27:45.856Z,14.97
2018-05-26T04:29:38.652Z,15.03
2018-05-26T04:30:38.569Z,15.11
2018-05-26T04:32:31.363Z,15.15
2018-05-26T04:33:31.277Z,15.16
2018-05-26T04:35:24.102Z,15.40
2018-05-26T04:36:23.991Z,15.41
2018-05-26T04:38:16.760Z,15.51
2018-05-26T04:39:16.698Z,15.59
2018-05-26T04:41:09.487Z,15.66
2018-05-26T04:42:09.418Z,15.81
2018-05-26T04:44:02.189Z,16.14
2018-05-26T04:45:02.124Z,16.23
2018-05-26T04:46:54.900Z,16.55
2018-05-26T04:47:54.832Z,16.67
2018-05-26T04:49:47.639Z,16.98
2018-05-26T04:50:47.576Z,17.06
2018-05-26T04:52:40.330Z,17.09
2018-05-26T04:53:40.269Z,17.40
2018-05-26T04:55:33.086Z,17.89
2018-05-26T04:56:33.009Z,18.20
2018-05-26T04:58:25.769Z,19.27
2018-05-26T04:59:25.717Z,20.20
2018-05-26T05:01:18.485Z,21.68
2018-05-26T05:02:18.450Z,22.41
2018-05-26T05:04:11.183Z,23.71
2018-05-26T05:05:11.128Z,24.12
2018-05-26T05:07:03.971Z,24.80
2018-05-26T05:08:03.836Z,25.11
2018-05-26T05:09:56.648Z,25.01
2018-05-26T05:10:56.567Z,24.63
2018-05-26T05:12:49.351Z,24.89
2018-05-26T05:13:49.272Z,24.97
2018-05-26T05:15:42.051Z,25.54
2018-05-26T05:16:41.988Z,25.61
2018-05-26T05:18:34.765Z,25.96
2018-05-26T05:19:34.698Z,26.20
2018-05-26T05:21:27.504Z,26.27
2018-05-26T05:22:27.443Z,25.66
2018-05-26T05:24:20.252Z,25.41
2018-05-26T05:25:20.181Z,25.94
2018-05-26T05:27:12.975Z,26.28
2018-05-26T05:28:12.905Z,26.41
2018-05-26T05:30:05.687Z,26.66
2018-05-26T05:31:05.620Z,27.11
2018-05-26T05:32:58.403Z,26.57
2018-05-26T05:33:58.355Z,26.36
2018-05-26T05:35:51.160Z,26.84
2018-05-26T05:36:51.108Z,27.20
2018-05-26T05:38:43.892Z,27.06
2018-05-26T05:39:43.836Z,27.55
2018-05-26T05:41:36.657Z,27.88
2018-05-26T05:42:36.592Z,28.13
2018-05-26T05:44:29.394Z,28.38
2018-05-26T05:45:29.338Z,27.65
2018-05-26T05:47:22.147Z,27.71
2018-05-26T05:48:22.094Z,28.14
2018-05-26T05:50:14.901Z,29.10
2018-05-26T05:51:14.850Z,29.58
2018-05-26T05:53:07.688Z,29.66
2018-05-26T05:54:07.607Z,29.62
2018-05-26T05:56:00.413Z,29.69
2018-05-26T05:57:00.350Z,29.45
2018-05-26T05:58:53.141Z,29.14
2018-05-26T05:59:53.093Z,28.35
2018-05-26T06:01:45.898Z,27.30
2018-05-26T06:02:45.840Z,27.68
2018-05-26T06:04:38.673Z,27.18
2018-05-26T06:05:38.634Z,27.55
2018-05-26T06:07:31.421Z,28.43
2018-05-26T06:08:31.354Z,28.13
2018-05-26T06:10:24.158Z,28.18
2018-05-26T06:11:24.100Z,28.50
2018-05-26T06:13:16.911Z,28.74
2018-05-26T06:14:16.851Z,28.40
2018-05-26T06:16:09.671Z,28.67
2018-05-26T06:17:09.597Z,28.42
2018-05-26T06:19:02.388Z,28.20
2018-05-26T06:20:02.338Z,28.69
2018-05-26T06:21:55.160Z,28.74
2018-05-26T06:22:55.097Z,29.42
2018-05-26T06:24:47.910Z,29.92
2018-05-26T06:25:47.851Z,30.10
2018-05-26T06:27:40.666Z,30.86
2018-05-26T06:28:40.603Z,31.19
2018-05-26T06:30:33.413Z,31.31
2018-05-26T06:31:33.351Z,31.28
2018-05-26T06:33:26.665Z,31.42
2018-05-26T06:34:26.602Z,31.01
2018-05-26T06:36:19.398Z,30.73
2018-05-26T06:37:19.343Z,30.49
2018-05-26T06:39:12.125Z,30.21
2018-05-26T06:40:12.069Z,30.11
2018-05-26T06:42:04.869Z,30.13
2018-05-26T06:43:04.824Z,30.63
2018-05-26T06:44:57.590Z,31.19
2018-05-26T06:45:57.545Z,30.97
2018-05-26T06:47:50.333Z,31.92
2018-05-26T06:48:50.278Z,32.10
2018-05-26T06:50:43.080Z,31.52
2018-05-26T06:51:43.020Z,31.94
2018-05-26T06:53:35.843Z,32.41
2018-05-26T06:54:35.775Z,31.42
2018-05-26T06:56:28.560Z,31.56
2018-05-26T06:57:28.516Z,32.10
2018-05-26T06:59:21.327Z,32.69
2018-05-26T07:00:21.310Z,32.91
2018-05-26T07:02:14.071Z,32.47
2018-05-26T07:03:14.012Z,32.10
2018-05-26T07:05:06.812Z,31.71
2018-05-26T07:06:06.757Z,31.46
2018-05-26T07:07:59.563Z,31.50
2018-05-26T07:08:59.510Z,31.32
2018-05-26T07:10:52.295Z,32.12
2018-05-26T07:11:52.251Z,32.36
2018-05-26T07:13:45.066Z,31.91
2018-05-26T07:14:45.004Z,31.94
2018-05-26T07:16:37.809Z,32.13
2018-05-26T07:17:37.754Z,32.47
2018-05-26T07:19:30.566Z,31.64
2018-05-26T07:20:30.512Z,31.23
2018-05-26T07:22:23.318Z,31.30
2018-05-26T07:23:23.260Z,31.53
2018-05-26T07:25:16.051Z,30.93
2018-05-26T07:26:16.004Z,30.73
2018-05-26T07:28:08.809Z,30.54
2018-05-26T07:29:08.754Z,30.16
2018-05-26T07:31:01.540Z,30.23
2018-05-26T07:32:01.496Z,30.60
2018-05-26T07:33:54.311Z,31.04
2018-05-26T07:34:54.245Z,31.79
2018-05-26T07:36:47.035Z,32.84
2018-05-26T07:37:46.988Z,33.38
2018-05-26T07:39:39.793Z,33.65
2018-05-26T07:40:39.736Z,33.78
2018-05-26T07:42:32.533Z,33.03
2018-05-26T07:43:32.473Z,32.44
2018-05-26T07:45:25.331Z,31.42
2018-05-26T07:46:25.226Z,31.87
2018-05-26T07:48:18.027Z,32.73
2018-05-26T07:49:17.978Z,33.33
2018-05-26T07:51:10.776Z,33.12
2018-05-26T07:52:10.759Z,33.35
2018-05-26T07:54:03.541Z,34.05
2018-05-26T07:55:03.484Z,34.58
2018-05-26T07:56:56.284Z,34.78
2018-05-26T07:57:56.249Z,34.55
2018-05-26T07:59:49.054Z,33.74
2018-05-26T08:00:48.983Z,32.98
2018-05-26T08:02:41.768Z,31.52
2018-05-26T08:03:41.725Z,32.09
2018-05-26T08:05:34.533Z,32.24
2018-05-26T08:06:34.473Z,32.40
2018-05-26T08:08:27.292Z,31.67
2018-05-26T08:09:27.231Z,31.90
2018-05-26T08:11:20.030Z,32.84
2018-05-26T08:12:19.978Z,33.37
2018-05-26T08:14:12.797Z,33.93
2018-05-26T08:15:12.735Z,34.14
2018-05-26T08:17:05.536Z,33.97
2018-05-26T08:18:05.479Z,34.09
2018-05-26T08:19:58.287Z,33.24
2018-05-26T08:20:58.226Z,33.40
2018-05-26T08:22:51.030Z,31.90
2018-05-26T08:23:50.977Z,32.59
2018-05-26T08:25:43.809Z,32.47
2018-05-26T08:26:43.749Z,32.27
2018-05-26T08:28:36.567Z,33.14
2018-05-26T08:29:36.506Z,33.74
2018-05-26T08:31:29.307Z,33.59
2018-05-26T08:32:29.262Z,34.03
2018-05-26T08:34:22.082Z,34.05
2018-05-26T08:35:22.054Z,33.65
2018-05-26T08:37:14.832Z,33.20
2018-05-26T08:38:14.784Z,33.77
2018-05-26T08:40:07.603Z,33.96
2018-05-26T08:41:07.546Z,33.62
2018-05-26T08:43:00.351Z,33.20
2018-05-26T08:44:00.303Z,33.49
2018-05-26T08:45:53.142Z,34.15
2018-05-26T08:46:53.080Z,34.60
2018-05-26T08:48:45.883Z,34.84
2018-05-26T08:49:45.822Z,34.38
2018-05-26T08:51:38.627Z,34.63
2018-05-26T08:52:38.591Z,34.53
2018-05-26T08:54:31.386Z,33.77
2018-05-26T08:55:31.341Z,34.33
2018-05-26T08:57:24.134Z,35.15
2018-05-26T08:58:24.318Z,35.54
2018-05-26T09:00:16.895Z,33.71
2018-05-26T09:01:16.845Z,33.45
2018-05-26T09:03:09.637Z,32.53
2018-05-26T09:04:09.598Z,32.16
2018-05-26T09:06:02.399Z,33.34
2018-05-26T09:07:02.345Z,33.74
2018-05-26T09:08:55.171Z,34.11
2018-05-26T09:09:55.135Z,34.28
2018-05-26T09:11:47.959Z,34.65
2018-05-26T09:12:47.909Z,34.78
2018-05-26T09:14:40.714Z,35.31
2018-05-26T09:15:40.657Z,35.61
2018-05-26T09:17:33.450Z,35.66
2018-05-26T09:18:33.412Z,34.60
2018-05-26T09:20:26.233Z,34.23
2018-05-26T09:21:26.178Z,34.52
2018-05-26T09:23:18.975Z,34.27
2018-05-26T09:24:18.938Z,34.56
2018-05-26T09:26:11.754Z,35.25
2018-05-26T09:27:11.699Z,35.36
2018-05-26T09:29:04.509Z,34.84
2018-05-26T09:30:04.466Z,35.10
2018-05-26T09:31:57.269Z,34.73
2018-05-26T09:32:57.213Z,34.98
2018-05-26T09:34:50.094Z,34.71
2018-05-26T09:35:50.044Z,34.75
2018-05-26T09:37:42.850Z,34.73
2018-05-26T09:38:42.803Z,34.87
2018-05-26T09:40:35.620Z,35.29
2018-05-26T09:41:35.554Z,34.58
2018-05-26T09:43:28.354Z,34.00
2018-05-26T09:44:28.305Z,33.97
2018-05-26T09:46:21.116Z,34.31
2018-05-26T09:47:21.061Z,34.64
2018-05-26T09:49:13.886Z,35.18
2018-05-26T09:50:13.842Z,35.37
2018-05-26T09:52:06.651Z,35.71
2018-05-26T09:53:06.609Z,35.59
2018-05-26T09:54:59.405Z,35.71
2018-05-26T09:55:59.410Z,35.76
2018-05-26T09:57:52.151Z,35.32
2018-05-26T09:58:52.107Z,34.16
2018-05-26T10:00:44.914Z,34.40
2018-05-26T10:01:44.856Z,34.63
2018-05-26T10:03:37.654Z,35.28
2018-05-26T10:04:37.626Z,35.25
2018-05-26T10:06:30.413Z,34.86
2018-05-26T10:07:30.357Z,34.40
2018-05-26T10:09:23.170Z,33.49
2018-05-26T10:10:23.127Z,33.20
2018-05-26T10:12:15.927Z,33.35
2018-05-26T10:13:15.874Z,33.82
2018-05-26T10:15:08.719Z,34.38
2018-05-26T10:16:08.642Z,34.76
2018-05-26T10:18:01.448Z,33.00
2018-05-26T10:19:01.405Z,33.00
2018-05-26T10:20:54.248Z,32.58
2018-05-26T10:21:54.190Z,31.97
2018-05-26T10:23:46.983Z,31.91
2018-05-26T10:24:46.944Z,32.14
2018-05-26T10:26:39.749Z,32.88
2018-05-26T10:27:39.689Z,33.14
2018-05-26T10:29:32.485Z,33.33
2018-05-26T10:30:32.489Z,33.53
2018-05-26T10:32:25.255Z,34.12
2018-05-26T10:33:25.206Z,34.28
2018-05-26T10:35:18.009Z,32.69
2018-05-26T10:36:17.962Z,32.53
2018-05-26T10:38:10.775Z,31.13
2018-05-26T10:39:10.696Z,31.19
2018-05-26T10:41:03.501Z,31.74
2018-05-26T10:42:03.445Z,31.32
2018-05-26T10:43:56.287Z,31.67
2018-05-26T10:44:56.211Z,32.12
2018-05-26T10:46:49.060Z,33.07
2018-05-26T10:47:49.008Z,33.43
2018-05-26T10:49:41.779Z,34.23
2018-05-26T10:50:41.747Z,33.79
2018-05-26T10:52:34.582Z,34.36
2018-05-26T10:53:34.493Z,34.64
2018-05-26T10:55:27.295Z,35.43
2018-05-26T10:56:27.247Z,35.49
2018-05-26T10:58:20.063Z,35.85
2018-05-26T10:59:20.016Z,35.52
2018-05-26T11:01:12.803Z,35.10
2018-05-26T11:02:12.757Z,35.28
2018-05-26T11:04:05.578Z,35.37
2018-05-26T11:05:05.509Z,35.28
2018-05-26T11:06:58.315Z,35.61
2018-05-26T11:07:58.255Z,35.52
2018-05-26T11:09:51.053Z,35.61
2018-05-26T11:10:51.001Z,35.59
2018-05-26T11:12:43.800Z,35.34
2018-05-26T11:13:43.739Z,34.91
2018-05-26T11:15:36.543Z,34.48
2018-05-26T11:16:36.484Z,34.63
2018-05-26T11:18:29.294Z,34.55
2018-05-26T11:19:29.228Z,34.43
2018-05-26T11:21:22.028Z,34.11
2018-05-26T11:22:21.984Z,34.15
2018-05-26T11:24:14.852Z,34.55
2018-05-26T11:25:14.748Z,35.00
2018-05-26T11:27:07.534Z,35.02
2018-05-26T11:28:07.483Z,34.38
2018-05-26T11:30:00.299Z,32.99
2018-05-26T11:31:00.257Z,31.30
2018-05-26T11:32:53.060Z,30.91
2018-05-26T11:33:53.001Z,30.72
2018-05-26T11:35:45.787Z,30.00
2018-05-26T11:36:45.764Z,30.01
2018-05-26T11:38:38.558Z,29.73
2018-05-26T11:39:38.492Z,29.51
2018-05-26T11:41:31.300Z,29.58
2018-05-26T11:42:31.286Z,29.48
2018-05-26T11:44:24.057Z,29.27
2018-05-26T11:45:23.991Z,29.00
2018-05-26T11:47:16.791Z,29.14
2018-05-26T11:48:16.739Z,29.15
2018-05-26T11:50:09.567Z,29.11
2018-05-26T11:51:09.501Z,29.12
2018-05-26T11:53:02.300Z,29.18
2018-05-26T11:54:02.234Z,29.23
2018-05-26T11:55:55.020Z,29.18
2018-05-26T11:56:54.969Z,29.35
2018-05-26T11:58:47.785Z,29.42
2018-05-26T11:59:47.779Z,29.25
2018-05-26T12:01:40.530Z,29.33
2018-05-26T12:02:40.454Z,29.25
2018-05-26T12:04:33.266Z,29.57
2018-05-26T12:05:33.185Z,29.78
2018-05-26T12:07:25.992Z,29.62
2018-05-26T12:08:25.943Z,29.81
2018-05-26T12:10:18.745Z,29.99
2018-05-26T12:11:18.678Z,29.95
2018-05-26T12:13:11.472Z,29.79
2018-05-26T12:14:11.413Z,29.58
2018-05-26T12:16:04.211Z,29.30
2018-05-26T12:17:04.150Z,29.23
2018-05-26T12:18:56.943Z,29.14
2018-05-26T12:19:56.874Z,28.79
2018-05-26T12:21:49.649Z,28.45
2018-05-26T12:22:49.606Z,28.14
2018-05-26T12:24:42.422Z,28.13
2018-05-26T12:25:42.351Z,28.17
2018-05-26T12:27:35.142Z,28.54
2018-05-26T12:28:35.082Z,28.72
2018-05-26T12:30:27.888Z,29.15
2018-05-26T12:31:27.815Z,29.18
2018-05-26T12:33:20.605Z,29.36
2018-05-26T12:34:20.552Z,29.44
2018-05-26T12:36:13.356Z,29.41
2018-05-26T12:37:13.289Z,29.32
2018-05-26T12:39:06.141Z,29.07
2018-05-26T12:40:06.239Z,29.18
2018-05-26T12:41:58.907Z,28.70
2018-05-26T12:42:58.789Z,28.67
2018-05-26T12:44:51.624Z,29.00
2018-05-26T12:45:51.556Z,28.97
2018-05-26T12:47:44.359Z,29.02
2018-05-26T12:48:44.309Z,29.15
2018-05-26T12:50:37.106Z,29.41
2018-05-26T12:51:37.046Z,29.29
2018-05-26T12:53:29.819Z,29.42
2018-05-26T12:54:29.774Z,29.66
2018-05-26T12:56:22.573Z,29.79
2018-05-26T12:57:22.508Z,30.00
2018-05-26T12:59:15.306Z,30.03
2018-05-26T13:00:15.232Z,30.06
2018-05-26T13:02:08.025Z,30.46
2018-05-26T13:03:07.942Z,30.60
2018-05-26T13:05:00.747Z,30.48
2018-05-26T13:06:00.678Z,30.28
2018-05-26T13:07:53.478Z,30.25
2018-05-26T13:08:53.395Z,30.18
2018-05-26T13:10:46.208Z,30.32
2018-05-26T13:11:46.133Z,30.21
2018-05-26T13:13:38.927Z,29.85
2018-05-26T13:14:38.901Z,29.88
2018-05-26T13:16:31.685Z,30.13
2018-05-26T13:17:31.612Z,30.15
2018-05-26T13:19:24.429Z,30.13
2018-05-26T13:20:24.349Z,30.16
2018-05-26T13:22:17.145Z,30.04
2018-05-26T13:23:17.088Z,30.19
2018-05-26T13:25:09.955Z,29.97
2018-05-26T13:26:09.849Z,29.88
2018-05-26T13:28:02.631Z,30.07
2018-05-26T13:29:02.570Z,30.03
2018-05-26T13:30:55.381Z,29.84
2018-05-26T13:31:55.301Z,29.63
2018-05-26T13:33:48.086Z,29.41
2018-05-26T13:34:48.032Z,29.30
2018-05-26T13:36:40.881Z,29.05
2018-05-26T13:37:40.805Z,28.72
2018-05-26T13:39:33.612Z,28.62
2018-05-26T13:40:33.608Z,28.54
2018-05-26T13:42:26.343Z,28.20
2018-05-26T13:43:26.284Z,28.09
2018-05-26T13:45:19.101Z,27.99
2018-05-26T13:46:19.028Z,28.02
2018-05-26T13:48:11.808Z,27.93
2018-05-26T13:49:11.778Z,27.86
2018-05-26T13:51:04.578Z,27.39
2018-05-26T13:52:04.521Z,27.13
2018-05-26T13:53:57.261Z,26.72
2018-05-26T13:54:57.243Z,26.57
2018-05-26T13:56:50.025Z,26.49
2018-05-26T13:57:49.995Z,26.35
2018-05-26T13:59:42.754Z,26.16
2018-05-26T14:00:42.693Z,25.98
2018-05-26T14:02:35.516Z,25.78
2018-05-26T14:03:35.445Z,25.74
2018-05-26T14:05:28.237Z,25.89
2018-05-26T14:06:28.172Z,25.96
2018-05-26T14:08:20.980Z,25.94
2018-05-26T14:09:20.906Z,25.94
2018-05-26T14:11:13.694Z,25.93
2018-05-26T14:12:13.628Z,25.96
2018-05-26T14:14:06.426Z,25.86
2018-05-26T14:15:06.352Z,26.00
2018-05-26T14:16:59.159Z,25.81
2018-05-26T14:17:59.118Z,26.01
2018-05-26T14:19:52.007Z,26.03
2018-05-26T14:20:51.843Z,25.67
2018-05-26T14:22:44.659Z,25.54
2018-05-26T14:23:44.578Z,25.79
2018-05-26T14:25:37.393Z,25.97
2018-05-26T14:26:37.329Z,25.97
2018-05-26T14:28:30.119Z,26.29
2018-05-26T14:29:30.067Z,26.24
2018-05-26T14:31:22.999Z,26.32
2018-05-26T14:32:22.897Z,26.31
2018-05-26T14:34:15.758Z,25.97
2018-05-26T14:35:15.661Z,26.01
2018-05-26T14:37:08.458Z,26.09
2018-05-26T14:38:08.390Z,26.21
2018-05-26T14:40:01.178Z,26.34
2018-05-26T14:41:01.121Z,26.27
2018-05-26T14:43:28.887Z,25.83
2018-05-26T14:44:28.817Z,25.67
2018-05-26T14:46:21.618Z,25.44
2018-05-26T14:47:21.544Z,25.53
2018-05-26T14:49:14.337Z,25.79
2018-05-26T14:50:14.315Z,25.78
2018-05-26T14:52:07.082Z,26.03
2018-05-26T14:53:07.018Z,26.13
2018-05-26T14:54:59.807Z,26.34
2018-05-26T14:55:59.737Z,26.49
2018-05-26T14:57:52.539Z,26.21
2018-05-26T14:58:52.466Z,26.20
2018-05-26T15:00:45.250Z,26.51
2018-05-26T15:01:45.232Z,26.57
2018-05-26T15:03:38.116Z,26.81
2018-05-26T15:04:37.935Z,26.88
2018-05-26T15:06:30.776Z,26.96
2018-05-26T15:07:30.697Z,27.15
2018-05-26T15:09:23.484Z,27.45
2018-05-26T15:10:23.429Z,27.34
2018-05-26T15:12:16.228Z,27.76
2018-05-26T15:13:16.252Z,27.83
2018-05-26T15:15:08.962Z,27.30
2018-05-26T15:16:08.922Z,27.43
2018-05-26T15:18:01.719Z,27.61
2018-05-26T15:19:01.635Z,27.72
2018-05-26T15:20:54.433Z,27.49
2018-05-26T15:21:54.372Z,27.18
2018-05-26T15:23:47.258Z,27.23
2018-05-26T15:24:47.082Z,27.28
2018-05-26T15:26:39.905Z,27.09
2018-05-26T15:27:39.841Z,26.97
2018-05-26T15:29:32.624Z,26.76
2018-05-26T15:30:32.565Z,26.57
2018-05-26T15:32:25.374Z,26.20
2018-05-26T15:33:25.300Z,26.20
2018-05-26T15:35:18.088Z,26.04
2018-05-26T15:36:18.028Z,25.98
2018-05-26T15:38:10.824Z,25.67
2018-05-26T15:39:10.746Z,25.69
2018-05-26T15:41:03.534Z,25.54
2018-05-26T15:42:03.481Z,25.49
2018-05-26T15:43:56.282Z,25.72
2018-05-26T15:44:56.215Z,25.67
2018-05-26T15:46:49.028Z,25.93
2018-05-26T15:47:48.943Z,25.81
2018-05-26T15:49:41.770Z,25.85
2018-05-26T15:50:41.676Z,25.79
2018-05-26T15:52:34.496Z,25.94
2018-05-26T15:53:34.398Z,26.00
2018-05-26T15:55:27.184Z,26.20
2018-05-26T15:56:27.132Z,26.16
2018-05-26T15:58:19.920Z,26.20
2018-05-26T15:59:19.857Z,26.04
2018-05-26T16:01:12.625Z,25.94
2018-05-26T16:02:12.565Z,25.90
2018-05-26T16:04:05.356Z,25.78
2018-05-26T16:05:05.282Z,25.69
2018-05-26T16:06:58.071Z,25.85
2018-05-26T16:07:58.004Z,25.76
2018-05-26T16:09:50.793Z,25.67
2018-05-26T16:10:50.738Z,25.44
2018-05-26T16:12:43.551Z,25.30
2018-05-26T16:13:43.466Z,25.24
2018-05-26T16:15:36.247Z,25.26
2018-05-26T16:16:36.193Z,25.27
2018-05-26T16:18:28.985Z,25.12
2018-05-26T16:19:28.909Z,25.09
2018-05-26T16:21:21.731Z,24.94
2018-05-26T16:22:21.672Z,24.99
2018-05-26T16:24:14.674Z,25.01
2018-05-26T16:25:14.675Z,24.92
2018-05-26T16:27:07.628Z,24.87
2018-05-26T16:28:07.550Z,24.92
2018-05-26T16:30:00.297Z,24.74
2018-05-26T16:31:00.170Z,24.52
2018-05-26T16:32:52.910Z,24.63
2018-05-26T16:33:52.811Z,24.74
2018-05-26T16:35:45.851Z,25.08
2018-05-26T16:36:45.557Z,25.09
2018-05-26T16:38:38.413Z,25.02
2018-05-26T16:39:38.352Z,25.08
2018-05-26T16:41:31.281Z,25.26
2018-05-26T16:42:31.221Z,25.31
2018-05-26T16:44:24.047Z,25.51
2018-05-26T16:45:24.090Z,25.26
2018-05-26T16:47:16.757Z,25.22
2018-05-26T16:48:16.688Z,25.09
2018-05-26T16:50:09.521Z,25.22
2018-05-26T16:51:09.457Z,25.42
2018-05-26T16:53:02.271Z,25.44
2018-05-26T16:54:02.184Z,25.49
2018-05-26T16:55:54.968Z,25.44
2018-05-26T16:56:54.911Z,25.36
2018-05-26T16:58:47.728Z,25.11
2018-05-26T16:59:47.651Z,25.09
2018-05-26T17:01:40.438Z,25.05
2018-05-26T17:02:40.385Z,25.04
2018-05-26T17:04:33.255Z,24.79
2018-05-26T17:05:33.178Z,24.63
2018-05-26T17:07:25.969Z,24.34
2018-05-26T17:08:25.914Z,24.31
2018-05-26T17:10:18.720Z,24.18
2018-05-26T17:11:18.644Z,24.15
2018-05-26T17:13:11.435Z,24.04
2018-05-26T17:14:11.368Z,24.06
2018-05-26T17:16:04.163Z,24.00
2018-05-26T17:17:04.095Z,23.84
2018-05-26T17:18:56.886Z,23.72
2018-05-26T17:19:56.843Z,23.75
2018-05-26T17:21:49.607Z,23.74
2018-05-26T17:22:49.548Z,23.86
2018-05-26T17:24:42.350Z,23.89
2018-05-26T17:25:42.308Z,23.96
2018-05-26T17:27:35.049Z,24.09
2018-05-26T17:28:34.999Z,24.14
2018-05-26T17:30:27.811Z,24.21
2018-05-26T17:31:27.756Z,24.29
2018-05-26T17:33:20.517Z,24.24
2018-05-26T17:34:20.460Z,24.21
2018-05-26T17:36:13.251Z,24.15
2018-05-26T17:37:13.177Z,24.02
2018-05-26T17:39:05.963Z,24.06
2018-05-26T17:40:05.903Z,23.94
2018-05-26T17:41:58.695Z,23.92
2018-05-26T17:42:58.631Z,23.96
2018-05-26T17:44:51.442Z,23.97
2018-05-26T17:45:51.397Z,23.92
2018-05-26T17:47:44.167Z,23.79
2018-05-26T17:48:44.080Z,23.79
2018-05-26T17:50:36.875Z,23.68
2018-05-26T17:51:36.810Z,23.64
2018-05-26T17:53:29.706Z,23.45
2018-05-26T17:54:29.540Z,23.42
2018-05-26T17:56:22.317Z,23.32
2018-05-26T17:57:22.270Z,23.32
2018-05-26T17:59:15.048Z,23.22
2018-05-26T18:00:14.988Z,23.19
2018-05-26T18:02:07.852Z,23.12
2018-05-26T18:03:07.787Z,23.16
2018-05-26T18:05:47.198Z,23.19
2018-05-26T18:06:47.133Z,23.21
2018-05-26T18:08:39.928Z,23.19
2018-05-26T18:09:39.870Z,23.14
2018-05-26T18:11:32.688Z,23.15
2018-05-26T18:12:32.619Z,23.12
2018-05-26T18:14:25.419Z,22.99
2018-05-26T18:15:25.345Z,23.00
2018-05-26T18:17:18.115Z,22.84
2018-05-26T18:18:18.054Z,22.82
2018-05-26T18:20:10.837Z,22.72
2018-05-26T18:21:10.764Z,22.75
2018-05-26T18:23:03.545Z,22.79
2018-05-26T18:24:03.478Z,22.85
2018-05-26T18:25:56.276Z,22.86
2018-05-26T18:26:56.202Z,22.81
2018-05-26T18:28:48.973Z,22.74
2018-05-26T18:29:48.928Z,22.78
2018-05-26T18:31:41.742Z,22.76
2018-05-26T18:32:41.665Z,22.78